sensor_id;sensor_type;location;lat;lon;timestamp;temperature;humidity
19033;DHT22;9649;51.042;13.804;2023-03-23T00:05:01;12.40;1.00
19033;DHT22;9649;51.042;13.804;2023-03-23T00:10:04;12.70;1.00
19033;DHT22;9649;51.042;13.804;2023-03-23T00:15:08;12.90;1.00
19033;DHT22;9649;51.042;13.804;2023-03-23T00:20:14;13.00;99.90
19033;DHT22;9649;51.042;13.804;2023-03-23T00:25:17;13.10;40.20
19033;DHT22;9649;51.042;13.804;2023-03-23T00:30:18;13.20;1.00
19033;DHT22;9649;51.042;13.804;2023-03-23T00:35:21;13.40;1.00
19033;DHT22;9649;51.042;13.804;2023-03-23T00:40:23;13.50;1.00
19033;DHT22;9649;51.042;13.804;2023-03-23T00:45:25;13.50;1.00
19033;DHT22;9649;51.042;13.804;2023-03-23T00:50:28;13.50;1.00
19033;DHT22;9649;51.042;13.804;2023-03-23T00:55:29;13.50;1.00
19033;DHT22;9649;51.042;13.804;2023-03-23T01:00:31;13.50;1.00
19033;DHT22;9649;51.042;13.804;2023-03-23T01:05:35;13.50;1.00
19033;DHT22;9649;51.042;13.804;2023-03-23T01:10:37;13.50;1.00
19033;DHT22;9649;51.042;13.804;2023-03-23T01:15:39;13.50;1.00
19033;DHT22;9649;51.042;13.804;2023-03-23T01:20:43;13.50;1.00
19033;DHT22;9649;51.042;13.804;2023-03-23T01:25:45;13.50;99.90
19033;DHT22;9649;51.042;13.804;2023-03-23T01:30:46;13.50;99.90
19033;DHT22;9649;51.042;13.804;2023-03-23T01:35:49;13.60;64.50
19033;DHT22;9649;51.042;13.804;2023-03-23T01:40:51;13.60;1.00
19033;DHT22;9649;51.042;13.804;2023-03-23T01:45:52;13.60;1.00
19033;DHT22;9649;51.042;13.804;2023-03-23T01:50:58;13.60;1.00
19033;DHT22;9649;51.042;13.804;2023-03-23T01:56:01;13.60;1.00
19033;DHT22;9649;51.042;13.804;2023-03-23T02:01:06;13.50;1.00
19033;DHT22;9649;51.042;13.804;2023-03-23T02:06:10;13.60;1.00
19033;DHT22;9649;51.042;13.804;2023-03-23T02:11:14;13.60;99.90
19033;DHT22;9649;51.042;13.804;2023-03-23T02:16:25;13.60;99.90
19033;DHT22;9649;51.042;13.804;2023-03-23T02:22:06;13.70;7.30
19033;DHT22;9649;51.042;13.804;2023-03-23T02:27:15;13.70;1.00
19033;DHT22;9649;51.042;13.804;2023-03-23T02:32:37;13.70;1.00
19033;DHT22;9649;51.042;13.804;2023-03-23T02:37:46;13.80;1.00
19033;DHT22;9649;51.042;13.804;2023-03-23T02:42:53;13.80;1.00
19033;DHT22;9649;51.042;13.804;2023-03-23T02:47:56;13.80;1.00
19033;DHT22;9649;51.042;13.804;2023-03-23T02:53:02;13.90;1.00
19033;DHT22;9649;51.042;13.804;2023-03-23T02:58:06;13.80;1.00
19033;DHT22;9649;51.042;13.804;2023-03-23T03:03:13;13.80;1.00
19033;DHT22;9649;51.042;13.804;2023-03-23T03:08:22;13.70;1.00
19033;DHT22;9649;51.042;13.804;2023-03-23T03:13:34;13.70;1.00
19033;DHT22;9649;51.042;13.804;2023-03-23T03:18:43;13.70;1.00
19033;DHT22;9649;51.042;13.804;2023-03-23T03:23:48;13.70;1.00
19033;DHT22;9649;51.042;13.804;2023-03-23T03:28:52;13.80;1.00
19033;DHT22;9649;51.042;13.804;2023-03-23T03:33:54;13.70;1.00
19033;DHT22;9649;51.042;13.804;2023-03-23T03:38:59;13.70;1.00
19033;DHT22;9649;51.042;13.804;2023-03-23T03:44:00;13.70;99.90
19033;DHT22;9649;51.042;13.804;2023-03-23T03:49:04;13.70;99.90
19033;DHT22;9649;51.042;13.804;2023-03-23T03:54:07;13.70;99.90
19033;DHT22;9649;51.042;13.804;2023-03-23T03:59:10;13.70;94.70
19033;DHT22;9649;51.042;13.804;2023-03-23T04:04:12;13.70;70.20
19033;DHT22;9649;51.042;13.804;2023-03-23T04:09:16;13.70;42.70
19033;DHT22;9649;51.042;13.804;2023-03-23T04:14:17;13.80;17.60
19033;DHT22;9649;51.042;13.804;2023-03-23T04:19:19;13.80;1.00
19033;DHT22;9649;51.042;13.804;2023-03-23T04:24:22;13.80;36.90
19033;DHT22;9649;51.042;13.804;2023-03-23T04:29:24;13.70;99.90
19033;DHT22;9649;51.042;13.804;2023-03-23T04:34:27;13.70;99.90
19033;DHT22;9649;51.042;13.804;2023-03-23T04:39:34;13.70;90.80
19033;DHT22;9649;51.042;13.804;2023-03-23T04:44:36;13.70;99.90
19033;DHT22;9649;51.042;13.804;2023-03-23T04:49:37;13.70;99.90
19033;DHT22;9649;51.042;13.804;2023-03-23T04:54:40;13.70;99.90
19033;DHT22;9649;51.042;13.804;2023-03-23T04:59:43;13.60;99.90
19033;DHT22;9649;51.042;13.804;2023-03-23T05:04:45;13.60;99.90
19033;DHT22;9649;51.042;13.804;2023-03-23T05:09:48;13.60;99.90
19033;DHT22;9649;51.042;13.804;2023-03-23T05:14:50;13.60;99.90
19033;DHT22;9649;51.042;13.804;2023-03-23T05:19:52;13.70;99.90
19033;DHT22;9649;51.042;13.804;2023-03-23T05:24:55;13.70;99.90
19033;DHT22;9649;51.042;13.804;2023-03-23T05:29:57;13.70;99.90
19033;DHT22;9649;51.042;13.804;2023-03-23T05:35:00;13.70;99.90
19033;DHT22;9649;51.042;13.804;2023-03-23T05:40:06;13.80;90.50
19033;DHT22;9649;51.042;13.804;2023-03-23T05:45:08;13.80;1.00
19033;DHT22;9649;51.042;13.804;2023-03-23T05:50:11;13.90;1.00
19033;DHT22;9649;51.042;13.804;2023-03-23T05:55:15;14.00;1.00
19033;DHT22;9649;51.042;13.804;2023-03-23T06:00:17;14.00;1.00
19033;DHT22;9649;51.042;13.804;2023-03-23T06:05:23;14.10;1.00
19033;DHT22;9649;51.042;13.804;2023-03-23T06:10:27;14.20;1.00
19033;DHT22;9649;51.042;13.804;2023-03-23T06:15:31;14.20;1.00
19033;DHT22;9649;51.042;13.804;2023-03-23T06:20:33;14.20;1.00
19033;DHT22;9649;51.042;13.804;2023-03-23T06:25:36;14.20;1.00
19033;DHT22;9649;51.042;13.804;2023-03-23T06:30:38;14.40;1.00
19033;DHT22;9649;51.042;13.804;2023-03-23T06:35:40;14.50;1.00
19033;DHT22;9649;51.042;13.804;2023-03-23T06:40:44;14.90;1.00
19033;DHT22;9649;51.042;13.804;2023-03-23T06:45:47;15.30;99.90
19033;DHT22;9649;51.042;13.804;2023-03-23T06:50:49;15.60;99.90
19033;DHT22;9649;51.042;13.804;2023-03-23T06:55:52;15.70;99.90
19033;DHT22;9649;51.042;13.804;2023-03-23T07:00:54;15.80;1.00
19033;DHT22;9649;51.042;13.804;2023-03-23T07:05:57;15.90;1.00
19033;DHT22;9649;51.042;13.804;2023-03-23T07:11:01;16.00;1.00
19033;DHT22;9649;51.042;13.804;2023-03-23T07:16:05;16.30;1.00
19033;DHT22;9649;51.042;13.804;2023-03-23T07:21:07;16.70;1.00
19033;DHT22;9649;51.042;13.804;2023-03-23T07:26:10;17.10;1.00
19033;DHT22;9649;51.042;13.804;2023-03-23T07:31:13;17.50;1.00
19033;DHT22;9649;51.042;13.804;2023-03-23T07:36:14;17.50;1.00
19033;DHT22;9649;51.042;13.804;2023-03-23T07:41:18;17.50;1.00
19033;DHT22;9649;51.042;13.804;2023-03-23T07:46:20;17.50;1.00
19033;DHT22;9649;51.042;13.804;2023-03-23T07:51:22;17.30;1.00
19033;DHT22;9649;51.042;13.804;2023-03-23T07:56:25;17.40;1.00
19033;DHT22;9649;51.042;13.804;2023-03-23T08:01:27;17.60;1.00
19033;DHT22;9649;51.042;13.804;2023-03-23T08:06:32;17.60;1.00
19033;DHT22;9649;51.042;13.804;2023-03-23T08:11:36;17.60;1.00
19033;DHT22;9649;51.042;13.804;2023-03-23T08:16:37;17.50;1.00
19033;DHT22;9649;51.042;13.804;2023-03-23T08:21:39;17.80;1.00
19033;DHT22;9649;51.042;13.804;2023-03-23T08:26:42;17.80;1.00
19033;DHT22;9649;51.042;13.804;2023-03-23T08:31:44;17.50;1.00
19033;DHT22;9649;51.042;13.804;2023-03-23T08:36:46;17.30;1.00
19033;DHT22;9649;51.042;13.804;2023-03-23T08:41:49;17.30;1.00
19033;DHT22;9649;51.042;13.804;2023-03-23T08:46:51;17.20;1.00
19033;DHT22;9649;51.042;13.804;2023-03-23T08:51:57;17.20;1.00
19033;DHT22;9649;51.042;13.804;2023-03-23T08:57:01;17.10;1.00
19033;DHT22;9649;51.042;13.804;2023-03-23T09:02:03;17.10;1.00
19033;DHT22;9649;51.042;13.804;2023-03-23T09:07:05;17.20;1.00
19033;DHT22;9649;51.042;13.804;2023-03-23T09:12:09;17.10;1.00
19033;DHT22;9649;51.042;13.804;2023-03-23T09:17:11;17.20;1.00
19033;DHT22;9649;51.042;13.804;2023-03-23T09:22:13;17.50;1.00
19033;DHT22;9649;51.042;13.804;2023-03-23T09:27:17;17.40;99.90
19033;DHT22;9649;51.042;13.804;2023-03-23T09:32:19;17.20;99.90
19033;DHT22;9649;51.042;13.804;2023-03-23T09:37:23;17.10;99.90
19033;DHT22;9649;51.042;13.804;2023-03-23T09:42:36;17.00;1.00
19033;DHT22;9649;51.042;13.804;2023-03-23T09:48:03;16.40;1.00
19033;DHT22;9649;51.042;13.804;2023-03-23T09:53:12;16.20;99.90
19033;DHT22;9649;51.042;13.804;2023-03-23T09:58:20;16.10;1.00
19033;DHT22;9649;51.042;13.804;2023-03-23T10:03:26;16.10;1.00
19033;DHT22;9649;51.042;13.804;2023-03-23T10:08:31;16.00;99.90
19033;DHT22;9649;51.042;13.804;2023-03-23T10:13:49;16.30;1.00
19033;DHT22;9649;51.042;13.804;2023-03-23T10:18:56;16.80;9.60
19033;DHT22;9649;51.042;13.804;2023-03-23T10:24:00;17.10;99.90
19033;DHT22;9649;51.042;13.804;2023-03-23T10:29:14;17.20;1.00
19033;DHT22;9649;51.042;13.804;2023-03-23T10:34:20;17.20;97.90
19033;DHT22;9649;51.042;13.804;2023-03-23T10:39:26;17.90;1.00
19033;DHT22;9649;51.042;13.804;2023-03-23T10:44:30;18.30;99.90
19033;DHT22;9649;51.042;13.804;2023-03-23T10:49:37;18.10;99.90
19033;DHT22;9649;51.042;13.804;2023-03-23T10:54:51;17.80;1.00
19033;DHT22;9649;51.042;13.804;2023-03-23T11:00:04;17.90;99.90
19033;DHT22;9649;51.042;13.804;2023-03-23T11:05:17;18.10;99.90
19033;DHT22;9649;51.042;13.804;2023-03-23T11:10:22;18.00;1.00
19033;DHT22;9649;51.042;13.804;2023-03-23T11:15:30;18.40;99.90
19033;DHT22;9649;51.042;13.804;2023-03-23T11:20:38;18.20;99.90
19033;DHT22;9649;51.042;13.804;2023-03-23T11:25:54;17.80;99.90
19033;DHT22;9649;51.042;13.804;2023-03-23T11:30:59;17.70;1.00
19033;DHT22;9649;51.042;13.804;2023-03-23T11:36:02;17.40;1.00
19033;DHT22;9649;51.042;13.804;2023-03-23T11:41:10;16.40;1.00
19033;DHT22;9649;51.042;13.804;2023-03-23T11:46:26;16.00;99.90
19033;DHT22;9649;51.042;13.804;2023-03-23T11:51:37;16.30;1.00
19033;DHT22;9649;51.042;13.804;2023-03-23T11:56:42;16.30;1.00
19033;DHT22;9649;51.042;13.804;2023-03-23T12:01:51;16.10;1.00
19033;DHT22;9649;51.042;13.804;2023-03-23T12:07:00;15.80;1.00
19033;DHT22;9649;51.042;13.804;2023-03-23T12:12:12;15.70;1.00
19033;DHT22;9649;51.042;13.804;2023-03-23T12:17:23;16.00;1.00
19033;DHT22;9649;51.042;13.804;2023-03-23T12:22:36;16.60;1.00
19033;DHT22;9649;51.042;13.804;2023-03-23T12:27:45;17.30;99.90
19033;DHT22;9649;51.042;13.804;2023-03-23T12:33:02;17.70;99.90
19033;DHT22;9649;51.042;13.804;2023-03-23T12:38:23;17.80;1.00
19033;DHT22;9649;51.042;13.804;2023-03-23T12:43:35;18.00;1.00
19033;DHT22;9649;51.042;13.804;2023-03-23T13:34:57;18.10;1.00
19033;DHT22;9649;51.042;13.804;2023-03-23T13:40:18;18.10;1.00
19033;DHT22;9649;51.042;13.804;2023-03-23T13:45:35;18.00;1.00
19033;DHT22;9649;51.042;13.804;2023-03-23T13:50:50;18.00;99.90
19033;DHT22;9649;51.042;13.804;2023-03-23T13:56:05;18.80;99.90
19033;DHT22;9649;51.042;13.804;2023-03-23T14:01:16;19.10;1.00
19033;DHT22;9649;51.042;13.804;2023-03-23T14:06:22;19.30;1.00
19033;DHT22;9649;51.042;13.804;2023-03-23T14:11:27;21.80;1.00
19033;DHT22;9649;51.042;13.804;2023-03-23T14:16:36;24.30;1.00
19033;DHT22;9649;51.042;13.804;2023-03-23T14:21:42;25.50;1.00
19033;DHT22;9649;51.042;13.804;2023-03-23T14:26:44;24.10;1.00
19033;DHT22;9649;51.042;13.804;2023-03-23T14:31:51;23.90;1.00
19033;DHT22;9649;51.042;13.804;2023-03-23T14:36:55;22.80;1.00
19033;DHT22;9649;51.042;13.804;2023-03-23T14:42:02;20.90;1.00
19033;DHT22;9649;51.042;13.804;2023-03-23T14:47:09;20.20;1.00
19033;DHT22;9649;51.042;13.804;2023-03-23T14:52:15;19.80;1.00
19033;DHT22;9649;51.042;13.804;2023-03-23T14:57:18;19.10;1.00
19033;DHT22;9649;51.042;13.804;2023-03-23T15:02:22;18.50;1.00
19033;DHT22;9649;51.042;13.804;2023-03-23T15:07:30;18.30;99.90
19033;DHT22;9649;51.042;13.804;2023-03-23T15:12:33;18.10;99.90
19033;DHT22;9649;51.042;13.804;2023-03-23T15:17:37;17.90;99.90
19033;DHT22;9649;51.042;13.804;2023-03-23T15:22:46;17.70;99.90
19033;DHT22;9649;51.042;13.804;2023-03-23T15:27:53;17.60;99.90
19033;DHT22;9649;51.042;13.804;2023-03-23T15:33:03;17.70;99.90
19033;DHT22;9649;51.042;13.804;2023-03-23T15:38:18;17.60;99.90
19033;DHT22;9649;51.042;13.804;2023-03-23T15:43:22;17.60;99.90
19033;DHT22;9649;51.042;13.804;2023-03-23T15:48:26;17.40;99.90
19033;DHT22;9649;51.042;13.804;2023-03-23T15:53:32;17.40;99.90
19033;DHT22;9649;51.042;13.804;2023-03-23T15:58:35;17.30;99.90
19033;DHT22;9649;51.042;13.804;2023-03-23T16:09:40;17.20;99.90
19033;DHT22;9649;51.042;13.804;2023-03-23T16:14:50;17.10;99.90
19033;DHT22;9649;51.042;13.804;2023-03-23T16:20:13;17.10;99.90
19033;DHT22;9649;51.042;13.804;2023-03-23T16:25:35;17.00;99.90
19033;DHT22;9649;51.042;13.804;2023-03-23T16:30:49;16.90;99.90
19033;DHT22;9649;51.042;13.804;2023-03-23T16:36:05;16.90;99.90
19033;DHT22;9649;51.042;13.804;2023-03-23T16:41:12;16.90;99.90
19033;DHT22;9649;51.042;13.804;2023-03-23T16:46:24;16.80;1.00
19033;DHT22;9649;51.042;13.804;2023-03-23T16:51:47;16.70;99.90
19033;DHT22;9649;51.042;13.804;2023-03-23T17:03:19;16.60;1.00
19033;DHT22;9649;51.042;13.804;2023-03-23T17:08:40;16.30;1.00
19033;DHT22;9649;51.042;13.804;2023-03-23T17:13:42;16.10;99.90
19033;DHT22;9649;51.042;13.804;2023-03-23T17:18:46;16.10;99.90
19033;DHT22;9649;51.042;13.804;2023-03-23T17:23:49;16.00;99.90
19033;DHT22;9649;51.042;13.804;2023-03-23T17:28:55;15.90;1.00
19033;DHT22;9649;51.042;13.804;2023-03-23T17:33:59;15.80;1.00
19033;DHT22;9649;51.042;13.804;2023-03-23T17:39:02;15.70;1.00
19033;DHT22;9649;51.042;13.804;2023-03-23T17:44:05;15.60;1.00
19033;DHT22;9649;51.042;13.804;2023-03-23T17:49:10;15.50;1.00
19033;DHT22;9649;51.042;13.804;2023-03-23T17:54:13;15.20;99.90
19033;DHT22;9649;51.042;13.804;2023-03-23T17:59:16;15.10;1.00
19033;DHT22;9649;51.042;13.804;2023-03-23T18:04:20;15.00;99.90
19033;DHT22;9649;51.042;13.804;2023-03-23T18:09:24;14.80;1.00
19033;DHT22;9649;51.042;13.804;2023-03-23T18:14:27;14.60;99.90
19033;DHT22;9649;51.042;13.804;2023-03-23T18:19:31;14.40;1.00
19033;DHT22;9649;51.042;13.804;2023-03-23T18:24:34;14.20;1.00
19033;DHT22;9649;51.042;13.804;2023-03-23T18:29:37;14.10;99.90
19033;DHT22;9649;51.042;13.804;2023-03-23T18:34:42;13.80;99.90
19033;DHT22;9649;51.042;13.804;2023-03-23T18:39:44;13.60;1.00
19033;DHT22;9649;51.042;13.804;2023-03-23T18:44:47;13.50;1.00
19033;DHT22;9649;51.042;13.804;2023-03-23T18:49:51;13.40;1.00
19033;DHT22;9649;51.042;13.804;2023-03-23T18:54:55;13.40;1.00
19033;DHT22;9649;51.042;13.804;2023-03-23T18:59:59;13.50;1.00
19033;DHT22;9649;51.042;13.804;2023-03-23T19:05:04;13.50;1.00
19033;DHT22;9649;51.042;13.804;2023-03-23T19:10:07;13.40;1.00
19033;DHT22;9649;51.042;13.804;2023-03-23T19:15:11;13.40;1.00
19033;DHT22;9649;51.042;13.804;2023-03-23T19:20:18;13.20;99.90
19033;DHT22;9649;51.042;13.804;2023-03-23T19:25:44;13.10;1.00
19033;DHT22;9649;51.042;13.804;2023-03-23T19:30:51;13.30;99.90
19033;DHT22;9649;51.042;13.804;2023-03-23T19:35:56;13.00;1.00
19033;DHT22;9649;51.042;13.804;2023-03-23T19:41:12;12.50;1.00
19033;DHT22;9649;51.042;13.804;2023-03-23T19:46:16;12.30;1.00
19033;DHT22;9649;51.042;13.804;2023-03-23T19:51:21;12.40;1.00
19033;DHT22;9649;51.042;13.804;2023-03-23T19:56:24;12.60;1.00
19033;DHT22;9649;51.042;13.804;2023-03-23T20:01:30;12.90;1.00
19033;DHT22;9649;51.042;13.804;2023-03-23T20:06:34;13.00;1.00
19033;DHT22;9649;51.042;13.804;2023-03-23T20:11:38;13.10;1.00
19033;DHT22;9649;51.042;13.804;2023-03-23T20:16:41;13.10;1.00
19033;DHT22;9649;51.042;13.804;2023-03-23T20:21:45;13.10;1.00
19033;DHT22;9649;51.042;13.804;2023-03-23T20:26:48;13.20;1.00
19033;DHT22;9649;51.042;13.804;2023-03-23T20:31:51;13.30;1.00
19033;DHT22;9649;51.042;13.804;2023-03-23T20:36:56;13.50;99.90
19033;DHT22;9649;51.042;13.804;2023-03-23T20:42:01;13.50;99.90
19033;DHT22;9649;51.042;13.804;2023-03-23T21:38:25;13.60;1.00
19033;DHT22;9649;51.042;13.804;2023-03-23T22:09:56;14.00;1.00
19033;DHT22;9649;51.042;13.804;2023-03-23T22:15:27;13.90;1.00
19033;DHT22;9649;51.042;13.804;2023-03-23T22:20:30;14.00;99.90
19033;DHT22;9649;51.042;13.804;2023-03-23T22:25:34;13.90;99.90
19033;DHT22;9649;51.042;13.804;2023-03-23T22:30:37;13.80;99.90
19033;DHT22;9649;51.042;13.804;2023-03-23T22:35:40;13.90;1.00
19033;DHT22;9649;51.042;13.804;2023-03-23T22:40:44;14.00;1.00
19033;DHT22;9649;51.042;13.804;2023-03-23T22:45:48;14.00;1.00
19033;DHT22;9649;51.042;13.804;2023-03-23T22:50:51;13.90;1.00
19033;DHT22;9649;51.042;13.804;2023-03-23T22:55:56;13.90;1.00
19033;DHT22;9649;51.042;13.804;2023-03-23T23:01:01;13.90;1.00
19033;DHT22;9649;51.042;13.804;2023-03-23T23:06:05;13.80;1.00
19033;DHT22;9649;51.042;13.804;2023-03-23T23:11:11;13.80;1.00
19033;DHT22;9649;51.042;13.804;2023-03-23T23:16:15;13.80;99.90
19033;DHT22;9649;51.042;13.804;2023-03-23T23:21:21;13.90;1.00
19033;DHT22;9649;51.042;13.804;2023-03-23T23:26:27;14.00;1.00
19033;DHT22;9649;51.042;13.804;2023-03-23T23:31:30;14.00;1.00
19033;DHT22;9649;51.042;13.804;2023-03-23T23:36:34;13.80;1.00
19033;DHT22;9649;51.042;13.804;2023-03-23T23:41:39;13.60;99.90
19033;DHT22;9649;51.042;13.804;2023-03-23T23:46:41;13.60;1.00
19033;DHT22;9649;51.042;13.804;2023-03-23T23:51:44;13.50;1.00
19033;DHT22;9649;51.042;13.804;2023-03-23T23:56:48;13.50;1.00
